Stilson, Georgia
Current Conditions -  °F | °C
As of 11:15 AM on Wednesday 26 Nov 2014 (Local Time) from KCWV Reporting Station
Broken Clouds Broken Clouds  
Wind Chill: 54°   Ceiling: 1400
Heat Index: 54°   Visibility: 10mi
Dew Point: 36°   Wind: 7mph
Humidity: 51%   Direction: 280°W
Pressure: 30.09"   Gusts: NA
Location:  32.2794°N, 81.623°W
Report Text: KCWV 261615Z AUTO 28006KT 10SM BKN014 BKN019 12/02 A3009 RMK AO2
Loading
Personal Weather Stations






























Interactive Weather Map New forecast layout! Learn more

10-Day Weather Forecast

Advertisements
Track Severe Weather on mobile